Time;durP1;ratioP1;P1;durP2;ratioP2;P2;SDS_P1;SDS_P2;PMS_P1;PMS_P2;Temp;Humidity;BMP_temperature;BMP_pressure;BME280_temperature;BME280_humidity;BME280_pressure;Samples;Min_cycle;Max_cycle;Signal;HPM_P1;HPM_P2
2023/12/02 00:00:52;;;;;;;27.52;12.98;;;;;;;;;;5042121;28;20036;-62
2023/12/02 00:03:18;;;;;;;28.90;13.73;;;;;;;;;;5041439;28;20098;-62
2023/12/02 00:05:44;;;;;;;29.98;13.25;;;;;;;;;;5040595;28;20045;-62
2023/12/02 00:08:10;;;;;;;29.08;13.48;;;;;;;;;;5039855;28;20140;-62
2023/12/02 00:10:36;;;;;;;28.85;13.80;;;;;;;;;;5041683;28;20087;-62
2023/12/02 00:13:02;;;;;;;36.85;14.90;;;;;;;;;;5041928;28;20057;-62
2023/12/02 00:15:28;;;;;;;33.20;13.77;;;;;;;;;;5041936;28;20053;-61
2023/12/02 00:17:54;;;;;;;27.70;13.18;;;;;;;;;;5041586;28;20029;-62
2023/12/02 00:20:20;;;;;;;29.23;14.35;;;;;;;;;;5041335;28;20048;-62
2023/12/02 00:22:46;;;;;;;27.42;13.05;;;;;;;;;;5040769;28;20052;-62
2023/12/02 00:25:12;;;;;;;26.17;13.05;;;;;;;;;;5041963;28;20041;-62
2023/12/02 00:27:38;;;;;;;31.27;13.98;;;;;;;;;;5023652;28;20730;-60
2023/12/02 00:30:04;;;;;;;31.33;14.13;;;;;;;;;;5041082;28;20041;-59
2023/12/02 00:32:30;;;;;;;29.67;14.02;;;;;;;;;;5042177;28;20048;-60
2023/12/02 00:34:57;;;;;;;26.60;13.20;;;;;;;;;;5040919;28;20484;-60
2023/12/02 00:37:23;;;;;;;31.15;13.80;;;;;;;;;;5041621;28;20045;-60
2023/12/02 00:39:49;;;;;;;25.80;12.57;;;;;;;;;;5040588;28;20044;-60
2023/12/02 00:42:15;;;;;;;32.75;14.10;;;;;;;;;;5041969;28;20483;-60
2023/12/02 00:44:41;;;;;;;27.85;13.85;;;;;;;;;;5040446;28;20045;-60
2023/12/02 00:47:07;;;;;;;29.55;14.48;;;;;;;;;;5041688;28;20592;-59
2023/12/02 00:49:33;;;;;;;29.13;13.23;;;;;;;;;;5040791;28;20044;-59
2023/12/02 00:51:59;;;;;;;29.35;14.35;;;;;;;;;;5039800;28;20497;-60
2023/12/02 00:54:25;;;;;;;29.17;13.27;;;;;;;;;;5040148;28;20045;-60
2023/12/02 00:56:51;;;;;;;29.67;13.93;;;;;;;;;;5041592;28;20441;-60
2023/12/02 00:59:17;;;;;;;26.73;13.02;;;;;;;;;;5041331;28;20040;-60
2023/12/02 01:01:43;;;;;;;28.85;13.32;;;;;;;;;;5043436;28;20398;-60
2023/12/02 01:04:09;;;;;;;32.10;14.52;;;;;;;;;;5044346;28;20506;-60
2023/12/02 01:06:35;;;;;;;29.25;13.80;;;;;;;;;;5044857;28;20041;-60
2023/12/02 01:09:01;;;;;;;31.30;13.65;;;;;;;;;;5044589;28;20064;-60
2023/12/02 01:11:27;;;;;;;29.75;13.93;;;;;;;;;;5044873;28;20546;-60
2023/12/02 01:13:53;;;;;;;28.65;13.18;;;;;;;;;;5043185;28;20124;-60
2023/12/02 01:16:19;;;;;;;30.05;14.05;;;;;;;;;;5044653;28;20036;-60
2023/12/02 01:18:45;;;;;;;28.30;13.50;;;;;;;;;;5043879;28;20592;-60
2023/12/02 01:21:11;;;;;;;30.15;14.20;;;;;;;;;;5044829;28;20041;-60
2023/12/02 01:23:37;;;;;;;28.67;13.65;;;;;;;;;;5044803;28;20049;-60
2023/12/02 01:26:03;;;;;;;30.85;14.02;;;;;;;;;;5044672;28;20393;-60
2023/12/02 01:28:29;;;;;;;27.95;13.25;;;;;;;;;;5044306;28;20041;-61
2023/12/02 01:30:55;;;;;;;32.50;14.23;;;;;;;;;;5044596;28;20106;-60
2023/12/02 01:33:21;;;;;;;30.05;14.57;;;;;;;;;;5044179;28;20041;-60
2023/12/02 01:35:47;;;;;;;28.77;14.48;;;;;;;;;;5044485;28;20045;-60
2023/12/02 01:38:13;;;;;;;30.48;14.45;;;;;;;;;;5043672;28;20744;-60
2023/12/02 01:40:39;;;;;;;32.78;14.38;;;;;;;;;;5044269;28;20048;-59
2023/12/02 01:43:05;;;;;;;29.38;13.70;;;;;;;;;;5044176;28;20073;-59
2023/12/02 01:45:31;;;;;;;32.97;14.10;;;;;;;;;;5044488;28;20051;-60
2023/12/02 01:47:57;;;;;;;27.00;13.20;;;;;;;;;;5043465;28;20057;-60
2023/12/02 01:50:23;;;;;;;29.45;13.68;;;;;;;;;;5044489;28;20079;-60
2023/12/02 01:52:49;;;;;;;27.52;12.73;;;;;;;;;;5044110;28;20045;-60
2023/12/02 01:55:15;;;;;;;28.05;13.00;;;;;;;;;;5043997;28;20044;-60
2023/12/02 01:57:41;;;;;;;28.08;12.32;;;;;;;;;;5044003;28;20049;-59
2023/12/02 02:00:09;;;;;;;29.52;13.32;;;;;;;;;;5043430;28;20056;-60
2023/12/02 02:02:35;;;;;;;29.15;13.35;;;;;;;;;;5116861;22;20069;-57
2023/12/02 02:05:01;;;;;;;26.55;12.27;;;;;;;;;;5058758;28;20114;-58
2023/12/02 02:07:28;;;;;;;25.20;12.40;;;;;;;;;;5063319;28;20720;-57
2023/12/02 02:09:54;;;;;;;27.60;12.40;;;;;;;;;;5064117;28;20043;-57
2023/12/02 02:12:20;;;;;;;30.08;13.57;;;;;;;;;;5061839;28;20131;-58
2023/12/02 02:14:46;;;;;;;28.77;12.70;;;;;;;;;;5061100;28;20101;-58
2023/12/02 02:17:12;;;;;;;24.52;11.82;;;;;;;;;;5061349;28;20041;-58
2023/12/02 02:19:38;;;;;;;24.30;11.52;;;;;;;;;;5061585;28;20097;-58
2023/12/02 02:22:04;;;;;;;26.52;12.52;;;;;;;;;;5061858;28;20402;-58
2023/12/02 02:24:30;;;;;;;30.25;13.70;;;;;;;;;;5062049;28;20055;-58
2023/12/02 02:26:56;;;;;;;28.65;13.10;;;;;;;;;;5062770;28;20036;-58
2023/12/02 02:29:22;;;;;;;25.10;12.10;;;;;;;;;;5063456;28;20449;-58
2023/12/02 02:31:48;;;;;;;27.58;12.63;;;;;;;;;;5063224;28;20186;-58
2023/12/02 02:34:14;;;;;;;27.20;12.60;;;;;;;;;;5061580;28;20131;-58
2023/12/02 02:36:40;;;;;;;26.27;12.45;;;;;;;;;;5063502;28;20033;-58
2023/12/02 02:39:07;;;;;;;26.90;11.18;;;;;;;;;;5061676;28;20045;-57
2023/12/02 02:41:33;;;;;;;27.83;12.52;;;;;;;;;;5062900;28;20059;-58
2023/12/02 02:43:59;;;;;;;24.83;12.02;;;;;;;;;;5062913;28;20493;-58
2023/12/02 02:46:25;;;;;;;24.45;12.18;;;;;;;;;;5063571;28;20048;-58
2023/12/02 02:48:51;;;;;;;21.60;11.02;;;;;;;;;;5062331;28;20338;-58
2023/12/02 02:51:17;;;;;;;27.45;13.43;;;;;;;;;;5061690;28;20036;-58
2023/12/02 02:53:43;;;;;;;24.95;12.07;;;;;;;;;;5062490;28;20067;-58
2023/12/02 02:56:09;;;;;;;27.08;11.68;;;;;;;;;;5062701;28;20044;-58
2023/12/02 02:58:36;;;;;;;25.13;11.98;;;;;;;;;;5063105;28;20196;-58
2023/12/02 03:01:03;;;;;;;25.30;11.80;;;;;;;;;;5063053;28;20041;-58
2023/12/02 03:03:29;;;;;;;28.88;12.15;;;;;;;;;;5060998;28;20397;-57
2023/12/02 03:05:55;;;;;;;25.38;11.80;;;;;;;;;;5062777;28;20048;-58
2023/12/02 03:08:21;;;;;;;23.42;11.93;;;;;;;;;;5062431;28;20206;-58
2023/12/02 03:10:49;;;;;;;24.85;12.63;;;;;;;;;;5062601;28;20048;-57
2023/12/02 03:13:15;;;;;;;27.27;12.73;;;;;;;;;;5062024;28;20067;-58
2023/12/02 03:15:41;;;;;;;24.55;12.73;;;;;;;;;;5062471;28;20044;-57
2023/12/02 03:18:07;;;;;;;28.35;11.45;;;;;;;;;;5061969;28;20374;-58
2023/12/02 03:20:33;;;;;;;24.13;11.07;;;;;;;;;;5061130;28;20070;-58
2023/12/02 03:22:59;;;;;;;22.77;11.13;;;;;;;;;;5062896;28;20050;-58
2023/12/02 03:25:26;;;;;;;23.02;11.48;;;;;;;;;;5062100;28;20116;-58
2023/12/02 03:27:52;;;;;;;26.52;12.30;;;;;;;;;;5062333;28;20817;-58
2023/12/02 03:30:18;;;;;;;24.05;11.70;;;;;;;;;;5062139;28;20161;-58
2023/12/02 03:32:44;;;;;;;24.63;11.43;;;;;;;;;;5061975;28;20070;-57
2023/12/02 03:35:10;;;;;;;26.88;12.05;;;;;;;;;;5061607;28;20044;-58
2023/12/02 03:37:39;;;;;;;23.05;11.70;;;;;;;;;;5061887;28;20043;-58
2023/12/02 03:40:05;;;;;;;24.33;11.73;;;;;;;;;;5062449;28;20047;-58
2023/12/02 03:42:31;;;;;;;25.45;11.18;;;;;;;;;;5062572;28;20087;-58
2023/12/02 03:44:57;;;;;;;28.48;12.32;;;;;;;;;;5062516;28;20771;-58
2023/12/02 03:47:23;;;;;;;23.40;11.40;;;;;;;;;;5062350;28;20048;-58
2023/12/02 03:49:49;;;;;;;29.15;12.65;;;;;;;;;;5060381;28;20089;-58
2023/12/02 03:52:15;;;;;;;24.73;11.07;;;;;;;;;;5061804;28;20044;-57
2023/12/02 03:54:41;;;;;;;24.60;11.55;;;;;;;;;;5061780;28;20713;-58
2023/12/02 03:57:07;;;;;;;28.77;11.95;;;;;;;;;;5060207;28;20105;-59
2023/12/02 03:59:33;;;;;;;26.40;11.85;;;;;;;;;;5062402;28;20056;-58
2023/12/02 04:02:00;;;;;;;27.10;12.52;;;;;;;;;;5062653;28;20041;-58
2023/12/02 04:04:26;;;;;;;27.70;12.32;;;;;;;;;;5060746;28;20193;-58
2023/12/02 04:06:53;;;;;;;27.25;12.20;;;;;;;;;;5062100;28;20503;-58
2023/12/02 04:09:19;;;;;;;25.83;12.27;;;;;;;;;;5062384;28;20093;-58
2023/12/02 04:11:46;;;;;;;23.20;12.23;;;;;;;;;;5061711;28;20055;-58
2023/12/02 04:14:12;;;;;;;23.95;11.52;;;;;;;;;;5060464;28;20048;-58
2023/12/02 04:16:41;;;;;;;25.17;11.63;;;;;;;;;;5062021;28;20047;-58
2023/12/02 04:19:08;;;;;;;26.10;12.13;;;;;;;;;;5061297;28;20637;-57
2023/12/02 04:21:34;;;;;;;26.23;12.18;;;;;;;;;;5062228;28;20067;-58
2023/12/02 04:24:00;;;;;;;25.15;12.02;;;;;;;;;;5062346;28;20036;-58
2023/12/02 04:26:26;;;;;;;26.83;12.43;;;;;;;;;;5062312;28;20055;-58
2023/12/02 04:28:52;;;;;;;26.90;12.32;;;;;;;;;;5061650;28;20064;-58
2023/12/02 04:31:18;;;;;;;22.58;10.73;;;;;;;;;;5061636;28;20080;-58
2023/12/02 04:33:44;;;;;;;27.73;12.55;;;;;;;;;;5060910;28;20033;-57
2023/12/02 04:36:10;;;;;;;23.27;11.90;;;;;;;;;;5062687;28;20044;-57
2023/12/02 04:38:37;;;;;;;28.17;13.07;;;;;;;;;;5065200;28;20045;-58
2023/12/02 04:41:03;;;;;;;26.67;12.50;;;;;;;;;;5065420;28;20335;-57
2023/12/02 04:43:30;;;;;;;26.42;12.10;;;;;;;;;;5065730;28;20041;-57
2023/12/02 04:45:56;;;;;;;24.20;12.45;;;;;;;;;;5065541;28;20039;-56
2023/12/02 04:48:22;;;;;;;29.58;13.02;;;;;;;;;;5064599;28;20052;-58
2023/12/02 04:50:48;;;;;;;28.38;13.20;;;;;;;;;;5064985;28;20580;-57
2023/12/02 04:53:14;;;;;;;29.13;12.95;;;;;;;;;;5065187;28;20044;-57
2023/12/02 04:55:40;;;;;;;24.45;11.88;;;;;;;;;;5065165;28;20048;-58
2023/12/02 04:58:06;;;;;;;26.02;12.18;;;;;;;;;;5065411;28;20601;-58
2023/12/02 05:00:32;;;;;;;25.80;12.30;;;;;;;;;;5064964;28;20048;-57
2023/12/02 05:02:58;;;;;;;25.20;12.85;;;;;;;;;;5063722;28;20048;-58
2023/12/02 05:05:24;;;;;;;24.15;12.45;;;;;;;;;;5065226;28;20053;-57
2023/12/02 05:07:50;;;;;;;27.67;12.70;;;;;;;;;;5065100;28;20689;-57
2023/12/02 05:10:16;;;;;;;28.65;13.55;;;;;;;;;;5064962;28;20033;-57
2023/12/02 05:12:42;;;;;;;27.92;12.20;;;;;;;;;;5063662;28;20540;-57
2023/12/02 05:15:11;;;;;;;30.02;13.35;;;;;;;;;;5065108;28;20076;-57
2023/12/02 05:17:37;;;;;;;26.70;13.07;;;;;;;;;;5064283;28;20303;-58
2023/12/02 05:20:03;;;;;;;24.88;13.13;;;;;;;;;;5064823;28;20544;-57
2023/12/02 05:22:29;;;;;;;26.65;12.32;;;;;;;;;;5064729;28;20051;-57
2023/12/02 05:24:55;;;;;;;28.88;12.82;;;;;;;;;;5064171;28;20048;-57
2023/12/02 05:27:21;;;;;;;27.25;13.20;;;;;;;;;;5064940;28;20499;-57
2023/12/02 05:29:47;;;;;;;28.50;13.05;;;;;;;;;;5064206;28;20574;-57
2023/12/02 05:32:13;;;;;;;29.27;12.40;;;;;;;;;;5063067;28;20052;-57
2023/12/02 05:34:39;;;;;;;25.92;12.27;;;;;;;;;;5064015;28;20143;-57
2023/12/02 05:37:06;;;;;;;25.65;12.82;;;;;;;;;;5064802;28;20706;-57
2023/12/02 05:39:33;;;;;;;29.48;12.85;;;;;;;;;;5064537;28;20072;-57
2023/12/02 05:41:59;;;;;;;24.92;11.73;;;;;;;;;;5064273;28;20287;-57
2023/12/02 05:44:25;;;;;;;27.90;13.38;;;;;;;;;;5063996;28;20102;-57
2023/12/02 05:46:51;;;;;;;32.78;13.38;;;;;;;;;;5063683;28;20079;-57
2023/12/02 05:49:17;;;;;;;31.58;13.13;;;;;;;;;;5063583;28;20037;-58
2023/12/02 05:51:43;;;;;;;27.35;12.50;;;;;;;;;;5064513;28;20049;-58
2023/12/02 05:54:10;;;;;;;33.17;14.02;;;;;;;;;;5064285;28;20409;-57
2023/12/02 05:56:36;;;;;;;30.27;13.50;;;;;;;;;;5064620;28;20040;-58
2023/12/02 05:59:02;;;;;;;29.10;13.65;;;;;;;;;;5064118;28;20075;-58
2023/12/02 06:01:28;;;;;;;28.92;13.15;;;;;;;;;;5064171;28;20428;-58
2023/12/02 06:03:54;;;;;;;29.30;13.02;;;;;;;;;;5062660;28;20503;-58
2023/12/02 06:06:20;;;;;;;27.92;13.50;;;;;;;;;;5048849;28;20053;-58
2023/12/02 06:08:46;;;;;;;34.85;14.32;;;;;;;;;;5049989;28;20045;-58
2023/12/02 06:11:12;;;;;;;27.92;13.02;;;;;;;;;;5060928;28;20068;-59
2023/12/02 06:13:38;;;;;;;42.20;13.98;;;;;;;;;;5056861;28;20079;-58
2023/12/02 06:16:04;;;;;;;27.63;12.70;;;;;;;;;;5057447;28;20395;-58
2023/12/02 06:18:30;;;;;;;29.23;13.63;;;;;;;;;;5058623;28;20044;-58
2023/12/02 06:20:57;;;;;;;30.40;12.68;;;;;;;;;;5062723;28;20390;-59
2023/12/02 06:23:23;;;;;;;31.30;13.43;;;;;;;;;;5056875;28;20055;-59
2023/12/02 06:25:49;;;;;;;28.13;12.55;;;;;;;;;;5060097;28;20044;-59
2023/12/02 06:28:15;;;;;;;29.58;12.77;;;;;;;;;;5061774;28;20071;-59
2023/12/02 06:30:42;;;;;;;33.00;13.75;;;;;;;;;;5056114;28;20075;-59
2023/12/02 06:33:08;;;;;;;28.95;13.93;;;;;;;;;;5062123;28;20525;-59
2023/12/02 06:35:34;;;;;;;33.67;14.77;;;;;;;;;;5062459;28;20041;-59
2023/12/02 06:38:00;;;;;;;31.98;13.48;;;;;;;;;;5062020;28;20052;-59
2023/12/02 06:40:26;;;;;;;32.72;14.00;;;;;;;;;;5055942;28;20489;-59
2023/12/02 06:42:52;;;;;;;28.05;13.52;;;;;;;;;;5042264;28;20047;-59
2023/12/02 06:45:18;;;;;;;30.15;12.95;;;;;;;;;;5049119;28;20043;-59
2023/12/02 06:47:44;;;;;;;29.17;13.63;;;;;;;;;;5053721;28;20033;-59
2023/12/02 06:50:11;;;;;;;28.80;13.70;;;;;;;;;;5050959;28;20071;-59
2023/12/02 06:52:37;;;;;;;31.65;13.88;;;;;;;;;;5047250;28;20120;-59
2023/12/02 06:55:03;;;;;;;29.83;13.57;;;;;;;;;;5040921;28;20186;-59
2023/12/02 06:57:29;;;;;;;28.98;12.73;;;;;;;;;;5056890;28;20041;-59
2023/12/02 06:59:55;;;;;;;31.88;14.00;;;;;;;;;;5060126;28;20040;-59
2023/12/02 07:02:21;;;;;;;29.58;13.18;;;;;;;;;;5057011;28;20186;-59
2023/12/02 07:04:47;;;;;;;29.65;12.73;;;;;;;;;;5025019;28;1054105;-59
2023/12/02 07:07:14;;;;;;;31.75;13.93;;;;;;;;;;5062496;28;20892;-59
2023/12/02 07:09:40;;;;;;;34.30;14.63;;;;;;;;;;5062701;28;20119;-59
2023/12/02 07:12:06;;;;;;;32.17;14.43;;;;;;;;;;5062370;28;20132;-59
2023/12/02 07:14:32;;;;;;;31.70;13.90;;;;;;;;;;5059873;28;20094;-59
2023/12/02 07:16:58;;;;;;;32.17;12.95;;;;;;;;;;5062287;28;20045;-59
2023/12/02 07:19:24;;;;;;;32.85;13.90;;;;;;;;;;5055938;28;20900;-59
2023/12/02 07:21:51;;;;;;;30.10;13.20;;;;;;;;;;5058338;28;20040;-59
2023/12/02 07:24:17;;;;;;;32.60;14.05;;;;;;;;;;5050508;28;20540;-59
2023/12/02 07:26:43;;;;;;;30.23;13.48;;;;;;;;;;5061502;28;20159;-58
2023/12/02 07:29:09;;;;;;;30.10;12.15;;;;;;;;;;5060868;28;20048;-58
2023/12/02 07:31:36;;;;;;;28.90;12.27;;;;;;;;;;5059731;28;20521;-58
2023/12/02 07:34:02;;;;;;;32.15;14.15;;;;;;;;;;5059528;28;20057;-59
2023/12/02 07:36:28;;;;;;;26.92;12.48;;;;;;;;;;5060051;28;20047;-59
2023/12/02 07:38:54;;;;;;;32.38;13.93;;;;;;;;;;5060165;28;20764;-59
2023/12/02 07:41:20;;;;;;;31.65;14.30;;;;;;;;;;5061263;28;20055;-59
2023/12/02 07:43:46;;;;;;;30.92;13.48;;;;;;;;;;5060954;28;20115;-59
2023/12/02 07:46:12;;;;;;;32.63;13.32;;;;;;;;;;5061598;28;20103;-59
2023/12/02 07:48:38;;;;;;;30.23;13.50;;;;;;;;;;5059536;28;20513;-59
2023/12/02 07:51:04;;;;;;;30.85;13.32;;;;;;;;;;5061298;28;20037;-59
2023/12/02 07:53:30;;;;;;;29.63;13.30;;;;;;;;;;5059776;28;20037;-58
2023/12/02 07:55:56;;;;;;;31.27;13.43;;;;;;;;;;5054712;28;20072;-57
2023/12/02 07:58:22;;;;;;;33.83;14.40;;;;;;;;;;5042660;28;20099;-57
2023/12/02 08:00:49;;;;;;;32.63;14.30;;;;;;;;;;5044292;28;20044;-58
2023/12/02 08:03:15;;;;;;;30.10;13.20;;;;;;;;;;5050273;28;20147;-57
2023/12/02 08:05:41;;;;;;;31.55;13.00;;;;;;;;;;5048964;28;20136;-57
2023/12/02 08:08:07;;;;;;;31.48;13.95;;;;;;;;;;5058435;28;20335;-57
2023/12/02 08:10:33;;;;;;;37.20;13.93;;;;;;;;;;5060280;28;20037;-57
2023/12/02 08:12:59;;;;;;;34.13;14.30;;;;;;;;;;5063052;28;20417;-57
2023/12/02 08:15:25;;;;;;;33.63;13.93;;;;;;;;;;5065835;28;20494;-57
2023/12/02 08:17:51;;;;;;;31.50;13.55;;;;;;;;;;5064723;28;20102;-57
2023/12/02 08:20:18;;;;;;;32.42;13.88;;;;;;;;;;5065133;28;20052;-56
2023/12/02 08:22:44;;;;;;;32.88;14.10;;;;;;;;;;5065211;28;20245;-56
2023/12/02 08:25:10;;;;;;;31.50;13.82;;;;;;;;;;5055987;28;20529;-59
2023/12/02 08:27:36;;;;;;;34.08;14.70;;;;;;;;;;5054668;28;20047;-58
2023/12/02 08:30:05;;;;;;;31.80;13.75;;;;;;;;;;5059297;28;20040;-58
2023/12/02 08:32:31;;;;;;;32.50;14.15;;;;;;;;;;5058924;28;20056;-58
2023/12/02 08:34:57;;;;;;;34.55;15.65;;;;;;;;;;5054057;28;20059;-58
2023/12/02 08:37:23;;;;;;;34.55;15.00;;;;;;;;;;5062663;28;20052;-58
2023/12/02 08:39:49;;;;;;;32.05;13.55;;;;;;;;;;5055275;28;20402;-58
2023/12/02 08:42:15;;;;;;;38.58;14.93;;;;;;;;;;5049271;28;20117;-59
2023/12/02 08:44:41;;;;;;;39.38;14.57;;;;;;;;;;5047162;28;20079;-58
2023/12/02 08:47:07;;;;;;;33.72;14.82;;;;;;;;;;5045624;28;20049;-58
2023/12/02 08:49:33;;;;;;;38.42;14.05;;;;;;;;;;5057337;28;20056;-58
2023/12/02 08:51:59;;;;;;;34.28;14.98;;;;;;;;;;5058485;28;20041;-58
2023/12/02 08:54:25;;;;;;;36.83;14.88;;;;;;;;;;5046451;28;20466;-58
2023/12/02 08:56:51;;;;;;;36.00;15.23;;;;;;;;;;5044501;28;20079;-58
2023/12/02 08:59:17;;;;;;;31.63;14.07;;;;;;;;;;5050344;28;20080;-58
2023/12/02 09:01:43;;;;;;;37.67;15.10;;;;;;;;;;5054523;28;20041;-58
2023/12/02 09:04:09;;;;;;;31.10;13.68;;;;;;;;;;5051242;28;20466;-58
2023/12/02 09:06:37;;;;;;;31.25;14.85;;;;;;;;;;5046501;28;20067;-58
2023/12/02 09:09:03;;;;;;;35.08;15.02;;;;;;;;;;5044998;28;20712;-57
2023/12/02 09:11:29;;;;;;;32.75;14.35;;;;;;;;;;5047277;28;20044;-58
2023/12/02 09:13:55;;;;;;;36.05;14.07;;;;;;;;;;5034922;28;20490;-58
2023/12/02 09:16:22;;;;;;;39.40;15.35;;;;;;;;;;5056288;28;20044;-58
2023/12/02 09:18:48;;;;;;;31.52;14.82;;;;;;;;;;5064867;28;20090;-58
2023/12/02 09:21:33;;;;;;;30.83;13.32;;;;;;;;;;5063345;28;20079;-58
2023/12/02 09:24:03;;;;;;;36.28;15.13;;;;;;;;;;5047566;28;20048;-58
2023/12/02 09:26:38;;;;;;;31.02;14.80;;;;;;;;;;5050985;28;20125;-58
2023/12/02 09:29:04;;;;;;;33.75;14.73;;;;;;;;;;5057975;28;20468;-58
2023/12/02 09:31:30;;;;;;;32.88;14.07;;;;;;;;;;5045739;28;20502;-59
2023/12/02 09:33:58;;;;;;;37.15;14.35;;;;;;;;;;5045453;28;20044;-58
2023/12/02 09:36:34;;;;;;;34.95;14.15;;;;;;;;;;5056641;28;20094;-58
2023/12/02 09:39:20;;;;;;;37.40;15.95;;;;;;;;;;5063025;28;20056;-58
2023/12/02 09:41:50;;;;;;;37.80;15.55;;;;;;;;;;5064664;28;20105;-58
2023/12/02 09:44:24;;;;;;;35.35;15.13;;;;;;;;;;5064165;28;20041;-58
2023/12/02 09:47:09;;;;;;;33.00;14.52;;;;;;;;;;5051997;28;20140;-58
2023/12/02 09:49:38;;;;;;;37.55;14.73;;;;;;;;;;5060539;28;20472;-59
2023/12/02 09:52:24;;;;;;;38.40;15.40;;;;;;;;;;5047764;28;20052;-58
2023/12/02 09:54:53;;;;;;;32.00;13.52;;;;;;;;;;5055824;28;20067;-58
2023/12/02 09:57:38;;;;;;;31.58;14.82;;;;;;;;;;5059031;28;20616;-58
2023/12/02 10:00:12;;;;;;;33.78;14.52;;;;;;;;;;5058519;28;20033;-58
2023/12/02 10:02:57;;;;;;;33.33;13.90;;;;;;;;;;5045683;28;20398;-58
2023/12/02 10:05:23;;;;;;;36.45;14.35;;;;;;;;;;5054692;28;20043;-58
2023/12/02 10:07:49;;;;;;;35.78;15.13;;;;;;;;;;5047316;28;20041;-58
2023/12/02 10:10:18;;;;;;;36.53;14.65;;;;;;;;;;5046038;28;20405;-58
2023/12/02 10:12:54;;;;;;;37.55;16.20;;;;;;;;;;5045075;28;20045;-58
2023/12/02 10:15:22;;;;;;;34.95;14.25;;;;;;;;;;5059990;28;20037;-58
2023/12/02 10:17:56;;;;;;;32.53;14.70;;;;;;;;;;5050392;28;20044;-59
2023/12/02 10:20:26;;;;;;;37.40;17.23;;;;;;;;;;5048206;28;20040;-58
2023/12/02 10:22:57;;;;;;;38.95;15.60;;;;;;;;;;5044412;28;20049;-58
2023/12/02 10:25:42;;;;;;;36.92;14.82;;;;;;;;;;5044165;28;20819;-59
2023/12/02 10:28:14;;;;;;;36.70;15.15;;;;;;;;;;5051804;28;20052;-58
2023/12/02 10:30:45;;;;;;;33.72;14.00;;;;;;;;;;5048887;28;20500;-58
2023/12/02 10:33:23;;;;;;;38.58;14.85;;;;;;;;;;5058354;28;20053;-59
2023/12/02 10:35:50;;;;;;;33.08;14.73;;;;;;;;;;5054420;28;20063;-59
2023/12/02 10:38:19;;;;;;;38.42;15.98;;;;;;;;;;5054262;28;20049;-58
2023/12/02 10:40:48;;;;;;;32.28;14.10;;;;;;;;;;5060253;28;20493;-58
2023/12/02 10:43:27;;;;;;;34.65;14.68;;;;;;;;;;5060400;28;20093;-59
2023/12/02 10:45:53;;;;;;;35.03;14.98;;;;;;;;;;5060919;28;20049;-58
2023/12/02 10:48:20;;;;;;;37.88;15.82;;;;;;;;;;5059747;28;20533;-58
2023/12/02 10:50:46;;;;;;;34.80;15.50;;;;;;;;;;5059413;28;20048;-58
2023/12/02 10:53:15;;;;;;;37.63;15.43;;;;;;;;;;5053747;28;20037;-58
2023/12/02 10:55:45;;;;;;;36.13;16.02;;;;;;;;;;5052679;28;20136;-58
2023/12/02 10:58:11;;;;;;;34.88;15.13;;;;;;;;;;5057667;28;20087;-58
2023/12/02 11:00:39;;;;;;;31.77;14.20;;;;;;;;;;5041225;28;20041;-59
2023/12/02 11:03:28;;;;;;;32.80;14.97;;;;;;;;;;5048699;28;20106;-58
2023/12/02 11:06:13;;;;;;;35.25;14.70;;;;;;;;;;5057381;28;20044;-58
2023/12/02 11:08:51;;;;;;;39.63;15.77;;;;;;;;;;5055514;28;20052;-59
2023/12/02 11:11:32;;;;;;;38.30;14.93;;;;;;;;;;5055940;28;20040;-58
2023/12/02 11:14:01;;;;;;;34.92;15.25;;;;;;;;;;5049615;28;20040;-59
2023/12/02 11:16:34;;;;;;;30.40;14.63;;;;;;;;;;5059555;28;20044;-58
2023/12/02 11:19:15;;;;;;;35.15;16.05;;;;;;;;;;5048156;28;20490;-59
2023/12/02 11:22:00;;;;;;;34.20;15.15;;;;;;;;;;5049135;28;20068;-58
2023/12/02 11:24:41;;;;;;;34.28;14.80;;;;;;;;;;5043269;28;20045;-58
2023/12/02 11:27:27;;;;;;;33.50;14.93;;;;;;;;;;5044639;28;20050;-59
2023/12/02 11:29:53;;;;;;;34.60;15.02;;;;;;;;;;5053532;28;20127;-58
2023/12/02 11:32:30;;;;;;;36.58;14.93;;;;;;;;;;5059211;28;20128;-57
2023/12/02 11:34:59;;;;;;;31.98;14.50;;;;;;;;;;5053768;28;20048;-58
2023/12/02 11:37:40;;;;;;;33.65;14.85;;;;;;;;;;5060711;28;20051;-58
2023/12/02 11:40:22;;;;;;;32.25;14.70;;;;;;;;;;5054869;28;20040;-58
2023/12/02 11:42:56;;;;;;;30.52;13.55;;;;;;;;;;5054104;28;20454;-58
2023/12/02 11:45:41;;;;;;;37.35;15.35;;;;;;;;;;5057124;28;20498;-58
2023/12/02 11:48:17;;;;;;;31.95;13.75;;;;;;;;;;5061084;28;20041;-58
2023/12/02 11:50:46;;;;;;;31.55;13.80;;;;;;;;;;5062137;28;20048;-58
2023/12/02 11:53:27;;;;;;;27.63;12.70;;;;;;;;;;5062217;28;20044;-58
2023/12/02 11:56:09;;;;;;;34.58;15.02;;;;;;;;;;5061953;28;20056;-59
2023/12/02 11:58:52;;;;;;;30.27;13.52;;;;;;;;;;5062047;28;20102;-58
2023/12/02 12:01:27;;;;;;;35.13;13.93;;;;;;;;;;5060515;28;20054;-59
2023/12/02 12:04:03;;;;;;;30.15;14.25;;;;;;;;;;5060655;28;20065;-58
2023/12/02 12:06:39;;;;;;;28.00;13.45;;;;;;;;;;5060602;28;20037;-58
2023/12/02 12:09:21;;;;;;;30.05;13.32;;;;;;;;;;5060791;28;20036;-59
2023/12/02 12:11:48;;;;;;;30.10;13.07;;;;;;;;;;5060820;28;20040;-58
2023/12/02 12:14:14;;;;;;;32.03;12.98;;;;;;;;;;5060342;28;20049;-59
2023/12/02 12:16:40;;;;;;;28.73;12.63;;;;;;;;;;5060625;28;20046;-59
2023/12/02 12:19:06;;;;;;;31.13;12.93;;;;;;;;;;5060540;28;20070;-59
2023/12/02 12:21:33;;;;;;;33.25;14.85;;;;;;;;;;5061110;28;20056;-59
2023/12/02 12:23:59;;;;;;;30.40;14.38;;;;;;;;;;5062231;28;20083;-59
2023/12/02 12:26:25;;;;;;;29.55;12.57;;;;;;;;;;5057877;28;20045;-59
2023/12/02 12:28:52;;;;;;;29.63;12.93;;;;;;;;;;5062034;28;20066;-59
2023/12/02 12:31:19;;;;;;;30.10;12.85;;;;;;;;;;5060863;28;20750;-59
2023/12/02 12:33:51;;;;;;;29.75;13.68;;;;;;;;;;5048021;28;20498;-59
2023/12/02 12:36:22;;;;;;;26.35;11.82;;;;;;;;;;5061651;28;20054;-59
2023/12/02 12:38:48;;;;;;;29.83;13.02;;;;;;;;;;5061859;28;20028;-57
2023/12/02 12:41:15;;;;;;;29.92;12.48;;;;;;;;;;5050186;28;20048;-57
2023/12/02 12:43:41;;;;;;;26.42;12.52;;;;;;;;;;5056683;28;20084;-57
2023/12/02 12:46:11;;;;;;;24.67;12.25;;;;;;;;;;5055997;28;20037;-57
2023/12/02 12:48:39;;;;;;;29.95;12.30;;;;;;;;;;5054176;28;20075;-57
2023/12/02 12:51:07;;;;;;;27.08;11.05;;;;;;;;;;5057133;28;20060;-58
2023/12/02 12:53:33;;;;;;;;;;;;;;;;;;5061278;28;20610;-59
2023/12/02 12:56:06;;;;;;;25.92;10.93;;;;;;;;;;5061808;28;19940;-58
2023/12/02 12:58:32;;;;;;;28.52;11.25;;;;;;;;;;5059449;28;20140;-58
2023/12/02 13:00:59;;;;;;;29.05;11.82;;;;;;;;;;5065976;28;20051;-58
2023/12/02 13:03:28;;;;;;;26.05;11.57;;;;;;;;;;5059693;28;20057;-58
2023/12/02 13:06:08;;;;;;;26.00;11.52;;;;;;;;;;5059415;28;20045;-59
2023/12/02 13:08:37;;;;;;;27.95;12.05;;;;;;;;;;5051667;28;20037;-59
2023/12/02 13:11:08;;;;;;;25.88;11.77;;;;;;;;;;5064090;28;20045;-58
2023/12/02 13:13:36;;;;;;;26.90;11.15;;;;;;;;;;5065303;28;20044;-58
2023/12/02 13:16:04;;;;;;;27.08;11.68;;;;;;;;;;5064235;28;20545;-58
2023/12/02 13:18:32;;;;;;;26.42;11.32;;;;;;;;;;5064480;28;20068;-58
2023/12/02 13:20:58;;;;;;;31.52;11.73;;;;;;;;;;5064540;28;20567;-58
2023/12/02 13:23:24;;;;;;;46.67;11.50;;;;;;;;;;5065237;28;20040;-58
2023/12/02 13:25:52;;;;;;;26.75;11.18;;;;;;;;;;5064852;28;20119;-58
2023/12/02 13:28:25;;;;;;;23.95;10.63;;;;;;;;;;5064774;28;20076;-58
2023/12/02 13:30:51;;;;;;;23.60;10.70;;;;;;;;;;5063544;28;20123;-58
2023/12/02 13:33:22;;;;;;;23.90;10.23;;;;;;;;;;5064352;28;20486;-57
2023/12/02 13:35:55;;;;;;;21.45;9.85;;;;;;;;;;5051037;28;20074;-58
2023/12/02 13:38:34;;;;;;;22.30;10.02;;;;;;;;;;5062020;28;20076;-58
2023/12/02 13:41:09;;;;;;;22.42;10.38;;;;;;;;;;5064796;28;20094;-58
2023/12/02 13:43:49;;;;;;;22.15;10.15;;;;;;;;;;5064859;28;20044;-58
2023/12/02 13:46:16;;;;;;;28.85;11.55;;;;;;;;;;5058949;28;20041;-59
2023/12/02 13:48:48;;;;;;;28.85;10.25;;;;;;;;;;5059054;28;20080;-58
2023/12/02 13:51:20;;;;;;;27.88;11.13;;;;;;;;;;5064207;28;20082;-59
2023/12/02 13:54:02;;;;;;;27.00;11.63;;;;;;;;;;5064116;28;20044;-59
2023/12/02 13:56:35;;;;;;;30.30;12.93;;;;;;;;;;5050341;28;20049;-58
2023/12/02 13:59:11;;;;;;;40.00;13.38;;;;;;;;;;5058039;28;20604;-58
2023/12/02 14:01:50;;;;;;;23.58;11.77;;;;;;;;;;5056471;28;20048;-58
2023/12/02 14:04:19;;;;;;;39.92;15.75;;;;;;;;;;5046201;28;20056;-58
2023/12/02 14:06:53;;;;;;;34.22;15.35;;;;;;;;;;5053585;28;20040;-58
2023/12/02 14:09:23;;;;;;;44.10;16.55;;;;;;;;;;5054922;28;20045;-58
2023/12/02 14:12:11;;;;;;;35.00;16.38;;;;;;;;;;5052019;28;20056;-59
2023/12/02 14:14:37;;;;;;;38.05;16.98;;;;;;;;;;5053182;28;20041;-59
2023/12/02 14:17:12;;;;;;;37.80;17.45;;;;;;;;;;5054528;28;20110;-58
2023/12/02 14:19:51;;;;;;;37.65;19.52;;;;;;;;;;5059202;28;20054;-59
2023/12/02 14:22:23;;;;;;;32.08;14.13;;;;;;;;;;5051784;28;20045;-58